Time;durP1;ratioP1;P1;durP2;ratioP2;P2;SDS_P1;SDS_P2;PMS_P1;PMS_P2;Temp;Humidity;BMP_temperature;BMP_pressure;BME280_temperature;BME280_humidity;BME280_pressure;Samples;Min_cycle;Max_cycle;Signal;HPM_P1;HPM_P2
2022/10/05 00:01:21;;;;;;;;;;;16.80;99.90;;;;;;5062544;28;19970;-74
2022/10/05 00:03:47;;;;;;;;;;;16.80;99.90;;;;;;5062955;28;19943;-75
2022/10/05 00:06:13;;;;;;;;;;;16.80;99.90;;;;;;5071344;28;20375;-75
2022/10/05 00:08:38;;;;;;;;;;;16.80;99.90;;;;;;5079098;28;20085;-75
2022/10/05 00:11:07;;;;;;;;;;;16.80;99.90;;;;;;5063151;28;20200;-74
2022/10/05 00:13:32;;;;;;;;;;;16.80;99.90;;;;;;5061297;28;19989;-74
2022/10/05 00:16:03;;;;;;;;;;;16.80;99.90;;;;;;5067220;28;20526;-75
2022/10/05 00:18:28;;;;;;;;;;;16.80;99.90;;;;;;5070013;28;19912;-74
2022/10/05 00:20:54;;;;;;;;;;;16.80;99.90;;;;;;5066691;28;20624;-74
2022/10/05 00:23:29;;;;;;;;;;;16.80;99.90;;;;;;5082497;28;19916;-75
2022/10/05 00:26:07;;;;;;;;;;;16.90;99.90;;;;;;5081785;28;20007;-75
2022/10/05 00:28:33;;;;;;;;;;;16.80;99.90;;;;;;5080749;28;20328;-75
2022/10/05 00:30:59;;;;;;;;;;;16.90;99.90;;;;;;5078489;28;19934;-75
2022/10/05 00:33:27;;;;;;;;;;;16.90;99.90;;;;;;5079701;28;19932;-74
2022/10/05 00:35:55;;;;;;;;;;;16.90;99.90;;;;;;5070570;28;20330;-74
2022/10/05 00:38:21;;;;;;;;;;;16.90;99.90;;;;;;5068261;28;19916;-75
2022/10/05 00:40:46;;;;;;;;;;;16.90;99.90;;;;;;5080145;28;19920;-75
2022/10/05 00:43:24;;;;;;;;;;;16.80;99.90;;;;;;5080229;28;20291;-74
2022/10/05 00:45:56;;;;;;;;;;;16.80;99.90;;;;;;5079211;28;20000;-74
2022/10/05 00:48:31;;;;;;;;;;;16.80;99.90;;;;;;5069067;28;20553;-74
2022/10/05 00:51:03;;;;;;;;;;;16.80;99.90;;;;;;5076135;28;19941;-74
2022/10/05 00:53:43;;;;;;;;;;;16.80;99.90;;;;;;5075366;28;20330;-74
2022/10/05 00:56:09;;;;;;;;;;;16.90;99.90;;;;;;5061000;28;20762;-75
2022/10/05 00:58:47;;;;;;;;;;;16.80;99.90;;;;;;5071570;28;20374;-75
2022/10/05 01:01:16;;;;;;;;;;;16.80;99.90;;;;;;5079039;28;19973;-75
2022/10/05 01:03:45;;;;;;;;;;;16.80;99.90;;;;;;5080417;28;19916;-75
2022/10/05 01:06:15;;;;;;;;;;;16.80;99.90;;;;;;5066478;28;19923;-75
2022/10/05 01:08:59;;;;;;;;;;;16.80;99.90;;;;;;5063401;28;19959;-74
2022/10/05 01:11:43;;;;;;;;;;;16.80;99.90;;;;;;5080585;28;19971;-75
2022/10/05 01:14:27;;;;;;;;;;;16.80;99.90;;;;;;5070788;28;19919;-75
2022/10/05 01:16:56;;;;;;;;;;;16.90;99.90;;;;;;5080627;28;20030;-75
2022/10/05 01:19:27;;;;;;;;;;;16.90;99.90;;;;;;5081292;28;19916;-75
2022/10/05 01:21:58;;;;;;;;;;;16.90;99.90;;;;;;5069464;28;19916;-75
2022/10/05 01:24:30;;;;;;;;;;;16.90;99.90;;;;;;5070001;28;20363;-75
2022/10/05 01:27:14;;;;;;;;;;;16.90;99.90;;;;;;5067893;28;20189;-75
2022/10/05 01:29:46;;;;;;;;;;;16.90;99.90;;;;;;5068618;28;19972;-75
2022/10/05 01:32:11;;;;;;;;;;;16.90;99.90;;;;;;5068552;28;20343;-76
2022/10/05 01:34:40;;;;;;;;;;;16.90;99.90;;;;;;5076133;28;20421;-76
2022/10/05 01:37:05;;;;;;;;;;;16.90;99.90;;;;;;5079836;28;19926;-75
2022/10/05 01:39:57;;;;;;;;;;;16.90;99.90;;;;;;5079715;28;20019;-75
2022/10/05 01:42:39;;;;;;;;;;;16.90;99.90;;;;;;5042458;28;20395;-75
2022/10/05 01:45:13;;;;;;;;;;;16.90;99.90;;;;;;5083879;28;19924;-75
2022/10/05 01:47:38;;;;;;;;;;;16.90;99.90;;;;;;5099226;28;19925;-75
2022/10/05 01:50:11;;;;;;;;;;;16.90;99.90;;;;;;5099474;28;20067;-75
2022/10/05 01:52:49;;;;;;;;;;;16.90;99.90;;;;;;5077371;28;19938;-76
2022/10/05 01:55:23;;;;;;;;;;;17.00;99.90;;;;;;5119275;27;20365;-75
2022/10/05 01:57:56;;;;;;;;;;;17.00;99.90;;;;;;5099429;27;19923;-75
2022/10/05 02:00:22;;;;;;;;;;;17.00;99.90;;;;;;5067184;28;20356;-75
2022/10/05 02:02:55;;;;;;;;;;;17.00;99.90;;;;;;5080332;28;19912;-75
2022/10/05 02:05:39;;;;;;;;;;;17.00;99.90;;;;;;5079902;28;19983;-75
2022/10/05 02:08:16;;;;;;;;;;;17.00;99.90;;;;;;5077250;28;19943;-76
2022/10/05 02:10:42;;;;;;;;;;;17.00;99.90;;;;;;5079638;28;20075;-75
2022/10/05 02:13:13;;;;;;;;;;;17.00;99.90;;;;;;5079460;28;20002;-75
2022/10/05 02:15:47;;;;;;;;;;;17.00;99.90;;;;;;5080204;28;19916;-75
2022/10/05 02:18:18;;;;;;;;;;;16.90;99.90;;;;;;5080256;28;19928;-75
2022/10/05 02:20:44;;;;;;;;;;;16.90;99.90;;;;;;5097487;28;19908;-75
2022/10/05 02:23:13;;;;;;;;;;;16.90;99.90;;;;;;5085536;28;19989;-76
2022/10/05 02:25:41;;;;;;;;;;;16.90;99.90;;;;;;5091425;28;19912;-75
2022/10/05 02:28:11;;;;;;;;;;;17.00;99.90;;;;;;5100557;28;19916;-75
2022/10/05 02:30:40;;;;;;;;;;;17.00;99.90;;;;;;5092321;28;20354;-75
2022/10/05 02:33:08;;;;;;;;;;;17.00;99.90;;;;;;5098056;28;20030;-75
2022/10/05 02:35:33;;;;;;;;;;;17.00;99.90;;;;;;5098882;28;19912;-75
2022/10/05 02:38:02;;;;;;;;;;;16.90;99.90;;;;;;5097692;28;19920;-76
2022/10/05 02:40:43;;;;;;;;;;;16.90;99.90;;;;;;5098043;28;20451;-75
2022/10/05 02:43:09;;;;;;;;;;;16.90;99.90;;;;;;5081514;28;19916;-75
2022/10/05 02:45:45;;;;;;;;;;;16.90;99.90;;;;;;5069754;28;20474;-74
2022/10/05 02:48:27;;;;;;;;;;;16.90;99.90;;;;;;5077461;28;19927;-75
2022/10/05 02:50:57;;;;;;;;;;;16.90;99.90;;;;;;5080092;28;19966;-74
2022/10/05 02:53:23;;;;;;;;;;;16.90;99.90;;;;;;5078915;28;19918;-75
2022/10/05 02:56:04;;;;;;;;;;;16.90;99.90;;;;;;5071291;28;20849;-75
2022/10/05 02:58:55;;;;;;;;;;;16.90;99.90;;;;;;5067919;28;19920;-75
2022/10/05 03:01:26;;;;;;;;;;;16.90;99.90;;;;;;5056928;28;19912;-75
2022/10/05 03:04:12;;;;;;;;;;;16.90;99.90;;;;;;5067615;28;20476;-75
2022/10/05 03:06:44;;;;;;;;;;;17.00;99.90;;;;;;5074555;28;19966;-75
2022/10/05 03:09:09;;;;;;;;;;;17.00;99.90;;;;;;5062511;28;19991;-75
2022/10/05 03:11:38;;;;;;;;;;;16.90;99.90;;;;;;5063348;28;20019;-75
2022/10/05 03:14:07;;;;;;;;;;;17.00;99.90;;;;;;5074848;28;20356;-75
2022/10/05 03:16:37;;;;;;;;;;;17.00;99.90;;;;;;5061570;28;19917;-75
2022/10/05 03:19:05;;;;;;;;;;;17.00;99.90;;;;;;5070838;28;19921;-75
2022/10/05 03:21:49;;;;;;;;;;;17.00;99.90;;;;;;5078366;28;20729;-75
2022/10/05 03:24:34;;;;;;;;;;;17.00;99.90;;;;;;5061128;28;20046;-75
2022/10/05 03:26:59;;;;;;;;;;;17.00;99.90;;;;;;5066953;28;20008;-75
2022/10/05 03:29:40;;;;;;;;;;;17.00;99.90;;;;;;5068752;28;20000;-75
2022/10/05 03:32:16;;;;;;;;;;;17.00;99.90;;;;;;5079300;28;20335;-75
2022/10/05 03:34:52;;;;;;;;;;;17.10;99.90;;;;;;5078241;28;19962;-75
2022/10/05 03:37:21;;;;;;;;;;;17.00;99.90;;;;;;5071435;28;19932;-75
2022/10/05 03:40:05;;;;;;;;;;;17.00;99.90;;;;;;5068764;28;19923;-74
2022/10/05 03:42:31;;;;;;;;;;;16.90;99.90;;;;;;5074394;28;19931;-75
2022/10/05 03:45:15;;;;;;;;;;;17.00;99.90;;;;;;5077051;28;19954;-75
2022/10/05 03:47:40;;;;;;;;;;;16.90;99.90;;;;;;5062888;28;20812;-75
2022/10/05 03:50:12;;;;;;;;;;;16.90;99.90;;;;;;5076966;28;19916;-75
2022/10/05 03:52:40;;;;;;;;;;;17.00;99.90;;;;;;5076032;28;20051;-75
2022/10/05 03:55:12;;;;;;;;;;;17.00;99.90;;;;;;5075965;28;20004;-75
2022/10/05 03:57:39;;;;;;;;;;;17.00;99.90;;;;;;5061670;28;19936;-75
2022/10/05 04:00:08;;;;;;;;;;;17.00;99.90;;;;;;5064590;28;19920;-75
2022/10/05 04:02:39;;;;;;;;;;;17.00;99.90;;;;;;5070279;28;19916;-75
2022/10/05 04:05:07;;;;;;;;;;;17.00;99.90;;;;;;5081341;28;19916;-75
2022/10/05 04:07:53;;;;;;;;;;;17.00;99.90;;;;;;5083373;28;20097;-75
2022/10/05 04:10:26;;;;;;;;;;;17.00;99.90;;;;;;5039191;28;20006;-75
2022/10/05 04:13:03;;;;;;;;;;;16.90;99.90;;;;;;5081371;28;19916;-75
2022/10/05 04:15:38;;;;;;;;;;;17.00;99.90;;;;;;5081761;28;20243;-75
2022/10/05 04:18:06;;;;;;;;;;;17.00;99.90;;;;;;5080184;28;19916;-75
2022/10/05 04:20:42;;;;;;;;;;;16.90;99.90;;;;;;5079162;28;19923;-74
2022/10/05 04:23:26;;;;;;;;;;;16.90;99.90;;;;;;5081882;28;20372;-75
2022/10/05 04:26:15;;;;;;;;;;;16.90;99.90;;;;;;5081757;28;19977;-74
2022/10/05 04:28:53;;;;;;;;;;;16.90;99.90;;;;;;5070811;28;19955;-74
2022/10/05 04:31:29;;;;;;;;;;;16.90;99.90;;;;;;5082282;28;19920;-74
2022/10/05 04:33:59;;;;;;;;;;;16.90;99.90;;;;;;5074866;28;19916;-74
2022/10/05 04:36:36;;;;;;;;;;;16.90;99.90;;;;;;5081977;28;20271;-74
2022/10/05 04:39:02;;;;;;;;;;;16.90;99.90;;;;;;5077970;28;19920;-74
2022/10/05 04:41:34;;;;;;;;;;;16.90;99.90;;;;;;5073769;28;20462;-74
2022/10/05 04:44:08;;;;;;;;;;;16.80;99.90;;;;;;5068199;28;20021;-74
2022/10/05 04:46:39;;;;;;;;;;;16.90;99.90;;;;;;5070009;28;19924;-74
2022/10/05 04:49:08;;;;;;;;;;;16.90;99.90;;;;;;5065289;28;20418;-75
2022/10/05 04:51:33;;;;;;;;;;;16.80;99.90;;;;;;5068911;28;20374;-74
2022/10/05 04:54:19;;;;;;;;;;;16.80;99.90;;;;;;5061925;28;20103;-75
2022/10/05 04:56:48;;;;;;;;;;;16.80;99.90;;;;;;5067821;28;20019;-75
2022/10/05 04:59:32;;;;;;;;;;;16.80;99.90;;;;;;5082731;28;19961;-74
2022/10/05 05:02:17;;;;;;;;;;;16.90;99.90;;;;;;5073580;28;19923;-74
2022/10/05 05:05:00;;;;;;;;;;;16.90;99.90;;;;;;5061399;28;19973;-74
2022/10/05 05:07:32;;;;;;;;;;;16.90;99.90;;;;;;5068299;28;19996;-75
2022/10/05 05:10:16;;;;;;;;;;;16.90;99.90;;;;;;5060970;28;19958;-75
2022/10/05 05:12:44;;;;;;;;;;;16.90;99.90;;;;;;5078365;28;20394;-74
2022/10/05 05:15:13;;;;;;;;;;;16.90;99.90;;;;;;5071685;28;20007;-75
2022/10/05 05:17:44;;;;;;;;;;;16.90;99.90;;;;;;5069254;28;19940;-74
2022/10/05 05:20:31;;;;;;;;;;;16.90;99.90;;;;;;5074939;28;19983;-75
2022/10/05 05:23:05;;;;;;;;;;;16.90;99.90;;;;;;5064007;28;19928;-74
2022/10/05 05:25:34;;;;;;;;;;;16.90;99.90;;;;;;5063062;28;19932;-75
2022/10/05 05:28:05;;;;;;;;;;;17.00;99.90;;;;;;5068125;28;19913;-75
2022/10/05 05:30:43;;;;;;;;;;;17.00;99.90;;;;;;5075303;28;20358;-75
2022/10/05 05:33:11;;;;;;;;;;;17.00;99.90;;;;;;5068776;28;20028;-75
2022/10/05 05:35:49;;;;;;;;;;;16.90;99.90;;;;;;5068302;28;19967;-74
2022/10/05 05:38:51;;;;;;;;;;;16.90;99.90;;;;;;5083158;28;20328;-74
2022/10/05 05:41:36;;;;;;;;;;;16.90;99.90;;;;;;5017829;28;20191;-74
2022/10/05 05:44:11;;;;;;;;;;;16.90;99.90;;;;;;5067973;28;20018;-75
2022/10/05 05:46:42;;;;;;;;;;;16.90;99.90;;;;;;5069191;28;19955;-74
2022/10/05 05:49:15;;;;;;;;;;;16.90;99.90;;;;;;5067379;28;20011;-75
2022/10/05 05:51:51;;;;;;;;;;;16.90;99.90;;;;;;5065167;28;20011;-74
2022/10/05 05:54:23;;;;;;;;;;;16.90;99.90;;;;;;5074175;28;20026;-74
2022/10/05 05:56:52;;;;;;;;;;;17.00;99.90;;;;;;5072812;28;20015;-74
2022/10/05 05:59:23;;;;;;;;;;;16.90;99.90;;;;;;5065110;28;20284;-74
2022/10/05 06:01:55;;;;;;;;;;;16.90;99.90;;;;;;5071451;28;19951;-74
2022/10/05 06:04:20;;;;;;;;;;;16.90;99.90;;;;;;5068536;28;19960;-75
2022/10/05 06:06:48;;;;;;;;;;;16.90;99.90;;;;;;5073149;28;19917;-74
2022/10/05 06:09:21;;;;;;;;;;;17.00;99.90;;;;;;5076914;28;19916;-74
2022/10/05 06:11:47;;;;;;;;;;;16.90;99.90;;;;;;5073578;28;20059;-74
2022/10/05 06:14:16;;;;;;;;;;;16.90;99.90;;;;;;5068270;28;20019;-75
2022/10/05 06:16:48;;;;;;;;;;;16.90;99.90;;;;;;5071156;28;19928;-75
2022/10/05 06:19:15;;;;;;;;;;;16.90;99.90;;;;;;5072157;28;19916;-74
2022/10/05 06:21:43;;;;;;;;;;;16.90;99.90;;;;;;5064958;28;19916;-75
2022/10/05 06:24:20;;;;;;;;;;;17.00;99.90;;;;;;5071514;28;20269;-75
2022/10/05 06:27:04;;;;;;;;;;;17.00;99.90;;;;;;5066077;28;19955;-75
2022/10/05 06:29:35;;;;;;;;;;;17.00;99.90;;;;;;5069884;28;20101;-75
2022/10/05 06:32:21;;;;;;;;;;;17.00;99.90;;;;;;5063895;28;19921;-75
2022/10/05 06:35:05;;;;;;;;;;;16.90;99.90;;;;;;5042782;28;20446;-74
2022/10/05 06:37:39;;;;;;;;;;;16.90;99.90;;;;;;5068552;28;19924;-74
2022/10/05 06:40:24;;;;;;;;;;;17.00;99.90;;;;;;5066935;28;19967;-74
2022/10/05 06:42:55;;;;;;;;;;;17.00;99.90;;;;;;5070231;28;20295;-74
2022/10/05 06:45:27;;;;;;;;;;;16.90;99.90;;;;;;5066000;28;19970;-74
2022/10/05 06:47:56;;;;;;;;;;;16.90;99.90;;;;;;5065361;28;19916;-74
2022/10/05 06:50:27;;;;;;;;;;;17.00;99.90;;;;;;5070547;28;19935;-74
2022/10/05 06:52:58;;;;;;;;;;;17.00;99.90;;;;;;5071703;28;20367;-74
2022/10/05 06:55:38;;;;;;;;;;;17.00;99.90;;;;;;5065398;28;19917;-74
2022/10/05 06:58:03;;;;;;;;;;;16.90;99.90;;;;;;5079874;28;19926;-74
2022/10/05 07:00:34;;;;;;;;;;;17.00;99.90;;;;;;5071577;28;20226;-74
2022/10/05 07:03:03;;;;;;;;;;;17.00;99.90;;;;;;5072763;28;19916;-74
2022/10/05 07:06:02;;;;;;;;;;;17.00;99.90;;;;;;5071054;28;20188;-75
2022/10/05 07:08:46;;;;;;;;;;;17.00;99.90;;;;;;5049623;28;19921;-74
2022/10/05 07:11:15;;;;;;;;;;;16.90;99.90;;;;;;5072625;28;19916;-75
2022/10/05 07:13:55;;;;;;;;;;;16.90;99.90;;;;;;5071095;28;19969;-74
2022/10/05 07:16:25;;;;;;;;;;;16.90;99.90;;;;;;5092601;28;20341;-74
2022/10/05 07:18:56;;;;;;;;;;;16.90;99.90;;;;;;5080735;28;20015;-74
2022/10/05 07:21:27;;;;;;;;;;;16.80;99.90;;;;;;5071693;28;19923;-74
2022/10/05 07:24:11;;;;;;;;;;;16.90;99.90;;;;;;5066171;28;19946;-75
2022/10/05 07:26:49;;;;;;;;;;;16.80;99.90;;;;;;5072579;28;20492;-75
2022/10/05 07:29:15;;;;;;;;;;;17.00;99.90;;;;;;5071948;28;19973;-74
2022/10/05 07:32:00;;;;;;;;;;;17.10;99.90;;;;;;5071372;28;19920;-74
2022/10/05 07:34:25;;;;;;;;;;;17.20;99.90;;;;;;5067868;28;19927;-75
2022/10/05 07:39:49;;;;;;;;;;;17.40;99.90;;;;;;5060706;28;19947;-74
2022/10/05 07:42:21;;;;;;;;;;;17.50;99.90;;;;;;5057146;28;19921;-75
2022/10/05 07:44:51;;;;;;;;;;;17.60;99.90;;;;;;5052635;28;19967;-75
2022/10/05 07:47:22;;;;;;;;;;;17.70;99.90;;;;;;5056285;28;19935;-75
2022/10/05 07:49:52;;;;;;;;;;;17.70;99.90;;;;;;5069640;28;19920;-74
2022/10/05 07:52:31;;;;;;;;;;;17.80;99.90;;;;;;5063829;28;19920;-75
2022/10/05 07:55:16;;;;;;;;;;;17.90;99.90;;;;;;5063383;28;19953;-75
2022/10/05 07:57:54;;;;;;;;;;;18.00;99.90;;;;;;5069120;28;20031;-75
2022/10/05 08:00:22;;;;;;;;;;;18.00;99.90;;;;;;5085185;28;19927;-75
2022/10/05 08:02:58;;;;;;;;;;;18.10;99.90;;;;;;5064849;28;21848;-75
2022/10/05 08:05:45;;;;;;;;;;;18.20;99.90;;;;;;5066263;28;19916;-74
2022/10/05 08:08:17;;;;;;;;;;;18.30;99.90;;;;;;5076890;28;20015;-75
2022/10/05 08:10:58;;;;;;;;;;;18.40;99.90;;;;;;5068507;28;19923;-75
2022/10/05 08:13:29;;;;;;;;;;;18.40;99.90;;;;;;5073892;28;20026;-75
2022/10/05 08:16:00;;;;;;;;;;;18.50;99.90;;;;;;5065415;28;19920;-75
2022/10/05 08:18:47;;;;;;;;;;;18.50;99.90;;;;;;5069453;28;19939;-75
2022/10/05 08:21:15;;;;;;;;;;;18.50;99.90;;;;;;4717112;28;9999963;-75
2022/10/05 08:23:40;;;;;;;;;;;18.60;99.90;;;;;;5058959;28;19920;-76
2022/10/05 08:26:25;;;;;;;;;;;18.60;99.90;;;;;;5076705;28;19938;-75
2022/10/05 08:28:53;;;;;;;;;;;18.70;99.90;;;;;;5072724;28;19916;-75
2022/10/05 08:31:21;;;;;;;;;;;18.70;99.90;;;;;;5076572;28;19990;-75
2022/10/05 08:33:54;;;;;;;;;;;18.80;99.90;;;;;;5077521;28;19970;-76
2022/10/05 08:36:45;;;;;;;;;;;19.10;99.90;;;;;;5066106;28;19928;-75
2022/10/05 08:39:17;;;;;;;;;;;19.20;99.90;;;;;;5075912;28;19923;-75
2022/10/05 08:42:01;;;;;;;;;;;19.20;99.90;;;;;;5082583;28;19920;-75
2022/10/05 08:44:45;;;;;;;;;;;19.30;99.90;;;;;;5070528;28;20133;-76
2022/10/05 08:47:17;;;;;;;;;;;19.50;99.90;;;;;;5074166;28;19924;-76
2022/10/05 08:49:43;;;;;;;;;;;19.90;99.90;;;;;;5064669;28;19974;-75
2022/10/05 08:52:27;;;;;;;;;;;20.50;99.90;;;;;;5064688;28;19920;-76
2022/10/05 08:55:11;;;;;;;;;;;21.00;99.90;;;;;;5071818;28;19916;-76
2022/10/05 08:57:36;;;;;;;;;;;21.60;97.10;;;;;;5066957;28;20063;-76
2022/10/05 09:00:22;;;;;;;;;;;22.40;95.80;;;;;;5070825;28;20069;-76
2022/10/05 09:03:07;;;;;;;;;;;22.40;94.50;;;;;;5072124;28;19916;-76
2022/10/05 09:05:51;;;;;;;;;;;22.70;93.20;;;;;;5062832;28;20415;-76
2022/10/05 09:08:29;;;;;;;;;;;23.00;92.90;;;;;;5084761;28;20366;-76
2022/10/05 09:11:02;;;;;;;;;;;22.30;92.70;;;;;;5077605;28;19916;-76
2022/10/05 09:13:37;;;;;;;;;;;21.40;95.00;;;;;;5074934;28;19942;-75
2022/10/05 09:16:22;;;;;;;;;;;20.60;96.70;;;;;;5071377;28;20054;-75
2022/10/05 09:18:48;;;;;;;;;;;20.20;98.60;;;;;;5078688;28;19931;-76
2022/10/05 09:21:20;;;;;;;;;;;20.10;99.90;;;;;;5081433;28;19918;-76
2022/10/05 09:23:47;;;;;;;;;;;20.30;99.90;;;;;;5069036;28;20430;-76
2022/10/05 09:26:32;;;;;;;;;;;21.10;99.10;;;;;;5066642;28;20010;-75
2022/10/05 09:29:09;;;;;;;;;;;21.60;97.10;;;;;;5079031;28;20398;-75
2022/10/05 09:31:54;;;;;;;;;;;21.60;96.20;;;;;;5076863;28;19942;-76
2022/10/05 09:34:29;;;;;;;;;;;21.80;96.30;;;;;;5067747;28;19984;-76
2022/10/05 09:37:03;;;;;;;;;;;21.60;95.90;;;;;;5059078;28;20386;-76
2022/10/05 09:39:49;;;;;;;;;;;21.40;96.20;;;;;;5065074;28;19920;-75
2022/10/05 09:42:26;;;;;;;;;;;21.30;96.90;;;;;;5065981;28;19924;-76
2022/10/05 09:44:52;;;;;;;;;;;21.00;97.50;;;;;;5075353;28;19970;-75
2022/10/05 09:47:36;;;;;;;;;;;20.50;99.00;;;;;;5086898;28;19931;-76
2022/10/05 09:50:16;;;;;;;;;;;20.30;99.90;;;;;;5090541;27;19999;-76
2022/10/05 09:53:00;;;;;;;;;;;20.10;99.90;;;;;;5073852;28;20285;-76
2022/10/05 09:55:34;;;;;;;;;;;20.10;99.90;;;;;;5098566;28;19951;-76
2022/10/05 09:58:03;;;;;;;;;;;20.00;99.90;;;;;;5069019;27;20267;-77
2022/10/05 10:00:31;;;;;;;;;;;20.30;99.90;;;;;;5098004;27;19981;-76
2022/10/05 10:02:56;;;;;;;;;;;20.50;99.90;;;;;;5094315;28;19916;-77
2022/10/05 10:05:49;;;;;;;;;;;20.60;99.30;;;;;;5093548;28;21615;-76
2022/10/05 10:08:31;;;;;;;;;;;21.30;98.50;;;;;;5087243;28;20487;-76
2022/10/05 10:11:08;;;;;;;;;;;21.80;96.70;;;;;;5081101;28;19919;-76
2022/10/05 10:13:54;;;;;;;;;;;21.60;96.40;;;;;;5068230;28;20397;-76
2022/10/05 10:16:26;;;;;;;;;;;21.70;95.80;;;;;;5105318;27;19924;-77
2022/10/05 10:18:58;;;;;;;;;;;22.00;95.90;;;;;;5105924;27;19919;-77
2022/10/05 10:21:44;;;;;;;;;;;22.00;95.50;;;;;;5092428;27;19974;-78
2022/10/05 10:24:44;;;;;;;;;;;22.00;94.90;;;;;;4740099;27;10000094;-78
2022/10/05 10:27:16;;;;;;;;;;;22.20;94.20;;;;;;4999215;28;19948;-78
2022/10/05 10:29:41;;;;;;;;;;;24.50;92.70;;;;;;5081144;28;20400;-78
2022/10/05 10:32:16;;;;;;;;;;;24.80;86.10;;;;;;5083308;28;19927;-78
2022/10/05 10:35:02;;;;;;;;;;;24.00;86.70;;;;;;5083811;28;20060;-75
2022/10/05 10:37:47;;;;;;;;;;;22.80;90.60;;;;;;5081783;28;19928;-77
2022/10/05 10:40:19;;;;;;;;;;;21.90;93.10;;;;;;5081739;28;19929;-78
2022/10/05 10:43:06;;;;;;;;;;;21.60;94.90;;;;;;5094323;28;19923;-77
2022/10/05 10:45:34;;;;;;;;;;;21.50;94.60;;;;;;5084170;28;19916;-78
2022/10/05 10:48:09;;;;;;;;;;;21.40;93.80;;;;;;5075935;28;19935;-77
2022/10/05 10:50:53;;;;;;;;;;;21.40;94.60;;;;;;5078625;28;19916;-77
2022/10/05 10:53:42;;;;;;;;;;;21.40;94.00;;;;;;5079650;28;20386;-77
2022/10/05 10:56:07;;;;;;;;;;;21.40;94.10;;;;;;5026165;28;19920;-78
2022/10/05 10:58:43;;;;;;;;;;;21.70;94.70;;;;;;5078866;28;20499;-78
2022/10/05 11:01:28;;;;;;;;;;;22.60;93.40;;;;;;5064394;28;19915;-78
2022/10/05 11:04:00;;;;;;;;;;;24.00;91.80;;;;;;5077302;28;20142;-78
2022/10/05 11:06:38;;;;;;;;;;;24.70;86.80;;;;;;5075969;28;19922;-78
2022/10/05 11:09:04;;;;;;;;;;;23.60;86.70;;;;;;5080801;28;19920;-78
2022/10/05 11:11:29;;;;;;;;;;;22.60;90.90;;;;;;5079259;28;19912;-77
2022/10/05 11:14:15;;;;;;;;;;;21.70;92.80;;;;;;5077235;28;20256;-77
2022/10/05 11:16:46;;;;;;;;;;;21.10;93.30;;;;;;5070579;28;19924;-77
2022/10/05 11:19:27;;;;;;;;;;;20.50;96.00;;;;;;5068584;28;19916;-76
2022/10/05 11:22:02;;;;;;;;;;;20.20;97.00;;;;;;5068339;28;19993;-76
2022/10/05 11:24:39;;;;;;;;;;;20.20;99.90;;;;;;5076816;28;19941;-76
2022/10/05 11:27:20;;;;;;;;;;;20.10;99.90;;;;;;5067158;28;20262;-76
2022/10/05 11:30:06;;;;;;;;;;;20.20;99.90;;;;;;5074123;28;19956;-76
2022/10/05 11:32:35;;;;;;;;;;;20.20;99.30;;;;;;5047674;28;19916;-76
2022/10/05 11:35:19;;;;;;;;;;;20.40;99.30;;;;;;5068776;28;20581;-76
2022/10/05 11:37:50;;;;;;;;;;;20.50;99.90;;;;;;5074299;28;19947;-76
2022/10/05 11:40:34;;;;;;;;;;;20.30;99.90;;;;;;5071447;28;19916;-76
2022/10/05 11:43:20;;;;;;;;;;;20.20;99.90;;;;;;5086818;28;19916;-77
2022/10/05 11:46:09;;;;;;;;;;;20.10;99.90;;;;;;5024357;28;19928;-76
2022/10/05 11:48:53;;;;;;;;;;;19.90;99.90;;;;;;5052974;28;19965;-76
2022/10/05 11:51:27;;;;;;;;;;;19.80;99.90;;;;;;5071506;28;19958;-76
2022/10/05 11:53:56;;;;;;;;;;;19.60;99.90;;;;;;5069574;28;19916;-76
2022/10/05 11:56:42;;;;;;;;;;;19.40;99.90;;;;;;5072081;28;19917;-75
2022/10/05 11:59:26;;;;;;;;;;;19.30;99.90;;;;;;5083830;28;19923;-76
2022/10/05 12:02:10;;;;;;;;;;;19.10;99.90;;;;;;5069562;28;20443;-76
2022/10/05 12:04:55;;;;;;;;;;;19.00;99.90;;;;;;5068321;28;20097;-76
2022/10/05 12:07:28;;;;;;;;;;;18.70;99.90;;;;;;5068385;28;19942;-76
2022/10/05 12:10:16;;;;;;;;;;;18.40;99.90;;;;;;5073795;28;20340;-76
2022/10/05 12:12:44;;;;;;;;;;;18.10;99.90;;;;;;5073947;28;19916;-76
2022/10/05 12:15:13;;;;;;;;;;;17.80;99.90;;;;;;5068108;28;19923;-76
2022/10/05 12:17:46;;;;;;;;;;;17.60;99.90;;;;;;5071875;28;19935;-76
2022/10/05 12:20:16;;;;;;;;;;;17.60;99.90;;;;;;5068214;28;19956;-76
2022/10/05 12:22:41;;;;;;;;;;;17.70;99.90;;;;;;5073993;28;20204;-76
2022/10/05 12:25:30;;;;;;;;;;;17.80;99.90;;;;;;5075441;28;20329;-76
2022/10/05 12:27:58;;;;;;;;;;;17.90;99.90;;;;;;5063589;28;19919;-76
2022/10/05 12:30:28;;;;;;;;;;;17.90;99.90;;;;;;5071397;28;19989;-76
2022/10/05 12:32:56;;;;;;;;;;;17.90;99.90;;;;;;5070824;28;20461;-76
2022/10/05 12:35:26;;;;;;;;;;;17.80;99.90;;;;;;5074575;28;19926;-77
2022/10/05 12:38:01;;;;;;;;;;;17.80;99.90;;;;;;5077374;28;19924;-76
2022/10/05 12:40:27;;;;;;;;;;;17.80;99.90;;;;;;5073776;28;19917;-76
2022/10/05 12:42:55;;;;;;;;;;;18.00;99.90;;;;;;5077173;28;19977;-77
2022/10/05 12:45:27;;;;;;;;;;;18.10;99.90;;;;;;5074515;28;19919;-76
2022/10/05 12:48:03;;;;;;;;;;;18.20;99.90;;;;;;5068125;28;19920;-76
2022/10/05 12:50:35;;;;;;;;;;;18.30;99.90;;;;;;5080409;28;19916;-77
2022/10/05 12:53:09;;;;;;;;;;;18.40;99.90;;;;;;5069560;28;19916;-76
2022/10/05 12:56:10;;;;;;;;;;;18.40;99.90;;;;;;5075898;28;20389;-76
2022/10/05 12:58:35;;;;;;;;;;;18.30;99.90;;;;;;5010611;28;19925;-76
2022/10/05 13:01:07;;;;;;;;;;;18.30;99.90;;;;;;5053957;28;19916;-76
2022/10/05 13:03:45;;;;;;;;;;;18.40;99.90;;;;;;5071220;28;19923;-76
2022/10/05 13:06:16;;;;;;;;;;;18.40;99.90;;;;;;5074522;28;20386;-76
2022/10/05 13:08:42;;;;;;;;;;;18.50;99.90;;;;;;5073790;28;20094;-76
2022/10/05 13:11:13;;;;;;;;;;;18.60;99.90;;;;;;5077332;28;19920;-76
2022/10/05 13:13:42;;;;;;;;;;;18.70;99.90;;;;;;5076003;28;19916;-76
2022/10/05 13:16:16;;;;;;;;;;;18.70;99.90;;;;;;5084818;28;19920;-76
2022/10/05 13:18:54;;;;;;;;;;;18.70;99.90;;;;;;5080426;28;20007;-76
2022/10/05 13:21:26;;;;;;;;;;;18.60;99.90;;;;;;5078303;28;20328;-76
2022/10/05 13:23:54;;;;;;;;;;;18.40;99.90;;;;;;5085210;28;19916;-76
2022/10/05 13:26:26;;;;;;;;;;;18.20;99.90;;;;;;5070990;28;20014;-76
2022/10/05 13:28:58;;;;;;;;;;;18.10;99.90;;;;;;5070122;28;19916;-76
2022/10/05 13:31:27;;;;;;;;;;;18.10;99.90;;;;;;5067953;28;20404;-75
2022/10/05 13:33:58;;;;;;;;;;;18.10;99.90;;;;;;5076658;28;19912;-76
2022/10/05 13:36:46;;;;;;;;;;;18.00;99.90;;;;;;5078315;28;20199;-75
2022/10/05 13:39:30;;;;;;;;;;;18.00;99.90;;;;;;5065105;28;19924;-75
2022/10/05 13:42:00;;;;;;;;;;;18.00;99.90;;;;;;5074436;28;19954;-75
2022/10/05 13:44:31;;;;;;;;;;;18.00;99.90;;;;;;5082653;28;19995;-75
2022/10/05 13:47:08;;;;;;;;;;;18.10;99.90;;;;;;5082424;28;20408;-75
2022/10/05 13:50:11;;;;;;;;;;;18.10;99.90;;;;;;5081359;28;20373;-75
2022/10/05 13:52:50;;;;;;;;;;;18.10;99.90;;;;;;5018767;28;19913;-75
2022/10/05 13:55:34;;;;;;;;;;;18.00;99.90;;;;;;5004417;28;19967;-75
2022/10/05 13:58:18;;;;;;;;;;;17.90;99.90;;;;;;5051046;28;19942;-75
2022/10/05 14:00:49;;;;;;;;;;;17.90;99.90;;;;;;5070904;28;20008;-75
2022/10/05 14:03:27;;;;;;;;;;;18.00;99.90;;;;;;5079295;28;20006;-75
2022/10/05 14:05:55;;;;;;;;;;;18.10;99.90;;;;;;5079676;28;19912;-75
2022/10/05 14:08:24;;;;;;;;;;;18.00;99.90;;;;;;5079135;28;20320;-76
2022/10/05 14:10:49;;;;;;;;;;;18.00;99.90;;;;;;5073226;28;20238;-75
2022/10/05 14:13:15;;;;;;;;;;;17.90;99.90;;;;;;5063588;28;20423;-75
2022/10/05 14:15:53;;;;;;;;;;;17.80;99.90;;;;;;5065828;28;20399;-75
2022/10/05 14:18:23;;;;;;;;;;;17.80;99.90;;;;;;5074717;28;19924;-76
2022/10/05 14:20:59;;;;;;;;;;;17.80;99.90;;;;;;5073874;28;20006;-75
2022/10/05 14:23:26;;;;;;;;;;;17.80;99.90;;;;;;5087371;28;20372;-76
2022/10/05 14:25:54;;;;;;;;;;;17.80;99.90;;;;;;5091894;28;19916;-75
2022/10/05 14:28:33;;;;;;;;;;;17.80;99.90;;;;;;5078896;28;19971;-76
2022/10/05 14:31:11;;;;;;;;;;;18.00;99.90;;;;;;5060975;28;20028;-75
2022/10/05 14:33:37;;;;;;;;;;;18.20;99.90;;;;;;5061559;28;19922;-76
2022/10/05 14:36:04;;;;;;;;;;;18.40;99.90;;;;;;5067295;28;19916;-75
2022/10/05 14:38:48;;;;;;;;;;;18.50;99.90;;;;;;5063624;28;19935;-75
2022/10/05 14:41:15;;;;;;;;;;;18.60;99.90;;;;;;5060474;28;19966;-76
2022/10/05 14:43:51;;;;;;;;;;;18.50;99.90;;;;;;5062140;28;19935;-76
2022/10/05 14:46:16;;;;;;;;;;;18.50;99.90;;;;;;5062460;28;20434;-76
2022/10/05 14:48:43;;;;;;;;;;;18.50;99.90;;;;;;5067297;28;19916;-76
2022/10/05 14:51:10;;;;;;;;;;;18.40;99.90;;;;;;5076347;28;19966;-76
2022/10/05 14:53:37;;;;;;;;;;;18.40;99.90;;;;;;5071340;28;19924;-76
2022/10/05 14:56:39;;;;;;;;;;;18.40;99.90;;;;;;5068029;28;20005;-75
2022/10/05 14:59:13;;;;;;;;;;;18.40;99.90;;;;;;5012326;28;19924;-76
2022/10/05 15:01:55;;;;;;;;;;;18.30;99.90;;;;;;5051754;28;19917;-76